Time;durP1;ratioP1;P1;durP2;ratioP2;P2;SDS_P1;SDS_P2;PMS_P1;PMS_P2;Temp;Humidity;BMP_temperature;BMP_pressure;BME280_temperature;BME280_humidity;BME280_pressure;Samples;Min_cycle;Max_cycle;Signal;HPM_P1;HPM_P2
2023/03/27 00:00:15;;;;;;;13.27;3.50;;;;;;;9.94;64.91;99792.09;5054781;28;20212;-65
2023/03/27 00:02:43;;;;;;;17.73;4.20;;;;;;;9.89;64.08;99786.41;5050926;28;20214;-65
2023/03/27 00:05:11;;;;;;;8.83;3.63;;;;;;;9.86;64.73;99805.25;5049561;28;20582;-66
2023/03/27 00:07:40;;;;;;;17.73;4.17;;;;;;;9.89;64.01;99803.13;5047000;28;20261;-65
2023/03/27 00:10:09;;;;;;;14.27;4.13;;;;;;;9.88;64.02;99809.41;5049708;28;20844;-64
2023/03/27 00:12:39;;;;;;;11.47;3.83;;;;;;;9.90;63.34;99818.03;5051461;28;20211;-66
2023/03/27 00:15:07;;;;;;;15.30;3.90;;;;;;;9.91;62.91;99826.81;5047960;28;20235;-64
2023/03/27 00:17:36;;;;;;;9.60;3.67;;;;;;;9.89;62.94;99829.63;5047883;28;20202;-64
2023/03/27 00:20:05;;;;;;;9.90;3.60;;;;;;;9.91;63.60;99845.34;5050070;28;20210;-63
2023/03/27 00:22:33;;;;;;;11.37;4.27;;;;;;;9.88;63.57;99840.38;5049761;28;20233;-64
2023/03/27 00:25:01;;;;;;;12.23;4.40;;;;;;;9.84;63.36;99845.16;5049981;28;20870;-64
2023/03/27 00:27:28;;;;;;;10.00;3.73;;;;;;;9.87;64.01;99850.13;5053428;28;20299;-64
2023/03/27 00:29:57;;;;;;;13.53;3.90;;;;;;;9.92;64.11;99857.63;5051984;28;20202;-64
2023/03/27 00:32:25;;;;;;;8.33;4.10;;;;;;;9.93;63.70;99854.81;5049915;28;20212;-65
2023/03/27 00:34:53;;;;;;;12.03;4.20;;;;;;;9.96;63.76;99880.97;5051144;28;20208;-65
2023/03/27 00:37:21;;;;;;;8.37;3.67;;;;;;;10.01;63.71;99883.16;5049458;28;21629;-64
2023/03/27 00:39:49;;;;;;;16.13;3.87;;;;;;;9.94;63.01;99877.63;5049774;28;20243;-63
2023/03/27 00:42:21;;;;;;;13.17;3.50;;;;;;;9.91;63.24;99888.56;5048910;28;20301;-65
2023/03/27 00:44:50;;;;;;;15.23;2.53;;;;;;;9.80;60.21;99891.47;5048520;28;20301;-64
2023/03/27 00:47:27;;;;;;;11.83;2.57;;;;;;;9.77;58.83;99899.72;5049319;28;20536;-62
2023/03/27 00:49:55;;;;;;;9.57;2.17;;;;;;;9.61;56.70;99892.50;5050397;28;20242;-65
2023/03/27 00:52:30;;;;;;;8.93;1.73;;;;;;;9.52;56.32;99895.25;5042246;28;20241;-63
2023/03/27 00:55:02;;;;;;;10.77;1.70;;;;;;;9.51;56.29;99897.06;5048521;28;20221;-65
2023/03/27 00:57:31;;;;;;;10.23;2.40;;;;;;;9.49;56.29;99898.25;5053472;28;20200;-64
2023/03/27 01:00:08;;;;;;;9.27;1.83;;;;;;;9.42;54.76;99900.66;5051201;28;20211;-63
2023/03/27 01:02:37;;;;;;;6.87;1.40;;;;;;;9.33;53.97;99905.06;5050950;28;20611;-63
2023/03/27 01:05:06;;;;;;;12.10;1.50;;;;;;;9.30;53.86;99917.78;5051427;28;20333;-63
2023/03/27 01:07:34;;;;;;;6.47;1.33;;;;;;;9.28;53.78;99923.22;5051095;28;20212;-65
2023/03/27 01:10:03;;;;;;;7.43;1.40;;;;;;;9.28;53.56;99928.50;5053478;28;20207;-64
2023/03/27 01:12:41;;;;;;;6.20;1.40;;;;;;;9.33;53.13;99928.03;5046173;28;20710;-62
2023/03/27 01:15:23;;;;;;;11.93;1.40;;;;;;;9.33;52.47;99931.50;5046743;28;20209;-64
2023/03/27 01:18:08;;;;;;;10.40;1.50;;;;;;;9.27;52.70;99942.72;5049630;28;20265;-65
2023/03/27 01:21:08;;;;;;;11.70;2.27;;;;;;;9.24;53.12;99947.47;5046374;28;20208;-65
2023/03/27 01:24:07;;;;;;;4.30;1.23;;;;;;;9.20;54.08;99957.53;5048614;28;20218;-63
2023/03/27 01:27:01;;;;;;;11.07;1.87;;;;;;;9.22;54.23;99976.75;5047593;28;20213;-63
2023/03/27 01:29:51;;;;;;;7.93;1.90;;;;;;;9.26;54.46;99977.25;5029929;28;20211;-62
2023/03/27 01:32:52;;;;;;;6.57;1.57;;;;;;;9.11;54.32;99987.53;5042749;28;20222;-65
2023/03/27 01:35:38;;;;;;;6.87;1.50;;;;;;;9.05;54.60;99990.78;5050932;28;20767;-64
2023/03/27 01:38:38;;;;;;;5.53;1.10;;;;;;;8.92;53.69;100000.88;5048801;28;20241;-66
2023/03/27 01:41:12;;;;;;;12.67;1.67;;;;;;;8.77;54.32;100013.78;5047403;28;20313;-65
2023/03/27 01:43:47;;;;;;;12.07;1.80;;;;;;;8.68;53.85;100020.78;5045687;28;20233;-63
2023/03/27 01:46:21;;;;;;;12.37;2.37;;;;;;;8.62;54.12;100021.34;5045705;28;20763;-63
2023/03/27 01:48:56;;;;;;;8.83;2.87;;;;;;;8.53;54.17;100030.16;5047203;28;20206;-64
2023/03/27 01:51:30;;;;;;;9.80;1.90;;;;;;;8.43;53.90;100026.75;5045659;28;21359;-64
2023/03/27 01:54:02;;;;;;;6.40;1.43;;;;;;;8.42;54.45;100038.28;5047611;28;20201;-65
2023/03/27 01:56:36;;;;;;;12.70;2.63;;;;;;;8.37;54.34;100042.31;5047910;28;20232;-63
2023/03/27 01:59:09;;;;;;;9.37;1.47;;;;;;;8.30;54.69;100049.97;5048346;28;20549;-63
2023/03/27 02:01:42;;;;;;;9.93;1.80;;;;;;;8.25;54.86;100054.84;5046651;28;20222;-63
2023/03/27 02:04:16;;;;;;;9.00;1.60;;;;;;;8.19;53.93;100066.81;5046745;28;20209;-63
2023/03/27 02:06:48;;;;;;;8.07;1.70;;;;;;;8.15;53.33;100072.53;5047518;28;20218;-64
2023/03/27 02:09:21;;;;;;;6.37;1.30;;;;;;;8.12;53.43;100071.00;5047087;28;20262;-62
2023/03/27 02:11:56;;;;;;;9.90;1.53;;;;;;;8.08;53.37;100076.72;5044963;28;20212;-64
2023/03/27 02:14:28;;;;;;;10.13;1.47;;;;;;;8.08;53.37;100079.34;5048351;28;20838;-66
2023/03/27 02:17:03;;;;;;;5.73;1.30;;;;;;;7.96;52.38;100091.03;5047751;28;20229;-64
2023/03/27 02:19:34;;;;;;;8.43;1.27;;;;;;;7.83;52.80;100092.16;5048555;28;20212;-65
2023/03/27 02:22:02;;;;;;;5.60;1.40;;;;;;;7.80;53.45;100097.72;5046952;28;20247;-63
2023/03/27 02:24:30;;;;;;;5.40;1.47;;;;;;;7.77;52.73;100091.88;5045948;28;20637;-64
2023/03/27 02:27:05;;;;;;;11.37;1.33;;;;;;;7.71;52.90;100119.66;5046413;28;20295;-64
2023/03/27 02:29:50;;;;;;;7.60;1.33;;;;;;;7.66;53.19;100124.50;5045183;28;20214;-64
2023/03/27 02:32:31;;;;;;;11.50;1.60;;;;;;;7.64;53.09;100133.56;5048120;28;20298;-62
2023/03/27 02:35:12;;;;;;;12.60;1.43;;;;;;;7.65;53.31;100140.50;5048274;28;20242;-63
2023/03/27 02:37:52;;;;;;;6.87;1.23;;;;;;;7.56;53.38;100150.09;5048101;28;20217;-65
2023/03/27 02:40:33;;;;;;;9.07;1.20;;;;;;;7.39;53.39;100150.72;5046129;28;20207;-66
2023/03/27 02:43:12;;;;;;;16.97;2.10;;;;;;;7.36;53.89;100151.84;5047566;28;20216;-63
2023/03/27 02:45:48;;;;;;;12.20;1.50;;;;;;;7.37;53.99;100147.41;5044117;28;20204;-63
2023/03/27 02:48:23;;;;;;;7.47;1.30;;;;;;;7.36;54.01;100156.28;5046372;28;20196;-65
2023/03/27 02:50:56;;;;;;;12.00;1.50;;;;;;;7.36;54.28;100161.56;5046306;28;20220;-63
2023/03/27 02:53:27;;;;;;;8.73;1.40;;;;;;;7.30;53.79;100172.66;5050261;28;20783;-65
2023/03/27 02:55:58;;;;;;;8.93;1.30;;;;;;;7.29;53.95;100178.88;5050053;28;20204;-63
2023/03/27 02:58:31;;;;;;;4.73;1.50;;;;;;;7.27;53.89;100183.47;5051121;28;20660;-63
2023/03/27 03:01:00;;;;;;;8.10;1.03;;;;;;;7.19;53.65;100186.75;5051805;28;20211;-64
2023/03/27 03:03:34;;;;;;;10.23;2.50;;;;;;;7.18;53.95;100185.94;5048537;28;20215;-62
2023/03/27 03:06:05;;;;;;;10.73;2.10;;;;;;;7.15;53.82;100191.47;5052529;28;20211;-64
2023/03/27 03:08:37;;;;;;;8.03;2.20;;;;;;;7.16;54.08;100202.84;5051965;28;20747;-63
2023/03/27 03:11:07;;;;;;;17.30;1.77;;;;;;;7.15;54.09;100204.63;5053743;28;20640;-64
2023/03/27 03:13:37;;;;;;;9.60;1.60;;;;;;;7.17;54.58;100209.78;5053451;28;20294;-63
2023/03/27 03:16:06;;;;;;;6.93;1.50;;;;;;;7.18;54.73;100217.56;5051560;28;20203;-63
2023/03/27 03:18:33;;;;;;;8.40;1.90;;;;;;;7.14;54.47;100221.44;5050362;28;20208;-65
2023/03/27 03:21:01;;;;;;;9.07;1.40;;;;;;;7.14;54.58;100231.97;5052656;28;20208;-64
2023/03/27 03:23:29;;;;;;;8.83;1.53;;;;;;;7.15;54.37;100244.19;5050425;28;20211;-63
2023/03/27 03:25:56;;;;;;;7.77;1.27;;;;;;;7.15;53.83;100256.53;5050188;28;20212;-65
2023/03/27 03:28:25;;;;;;;10.93;1.03;;;;;;;7.13;54.01;100250.56;5051346;28;20218;-63
2023/03/27 03:30:57;;;;;;;7.53;1.40;;;;;;;7.08;54.09;100260.69;5048563;28;20875;-64
2023/03/27 03:33:26;;;;;;;11.87;1.77;;;;;;;7.11;54.50;100265.69;5049891;28;20215;-65
2023/03/27 03:35:57;;;;;;;9.23;0.90;;;;;;;7.14;54.34;100275.97;5051214;28;20211;-65
2023/03/27 03:38:25;;;;;;;12.27;1.90;;;;;;;7.11;54.28;100277.09;5051634;28;20239;-64
2023/03/27 03:40:54;;;;;;;7.17;1.30;;;;;;;7.10;54.05;100283.31;5045509;28;20238;-63
2023/03/27 03:43:23;;;;;;;7.90;1.23;;;;;;;7.07;54.01;100288.84;5048956;28;20250;-63
2023/03/27 03:45:52;;;;;;;12.43;1.37;;;;;;;7.03;54.02;100295.34;5049360;28;20533;-64
2023/03/27 03:48:22;;;;;;;5.47;1.47;;;;;;;7.06;53.83;100297.72;5049171;28;20245;-65
2023/03/27 03:50:50;;;;;;;5.23;1.47;;;;;;;7.09;54.23;100307.19;5048000;28;20300;-66
2023/03/27 03:53:20;;;;;;;8.00;1.17;;;;;;;7.06;53.87;100313.53;5050938;28;20251;-63
2023/03/27 03:55:50;;;;;;;7.23;1.10;;;;;;;7.07;53.99;100331.03;5047749;28;20207;-66
2023/03/27 03:58:18;;;;;;;10.70;2.37;;;;;;;7.06;53.85;100337.25;5050236;28;20231;-64
2023/03/27 04:00:46;;;;;;;11.37;1.50;;;;;;;7.03;54.10;100344.63;5047523;28;20208;-63
2023/03/27 04:03:17;;;;;;;6.40;1.50;;;;;;;6.95;54.25;100339.94;5048800;28;20782;-64
2023/03/27 04:05:46;;;;;;;5.33;1.20;;;;;;;6.94;54.02;100354.13;5050653;28;20319;-65
2023/03/27 04:08:14;;;;;;;9.33;1.20;;;;;;;6.99;54.14;100362.47;5048057;28;20223;-63
2023/03/27 04:10:42;;;;;;;8.87;1.33;;;;;;;6.95;53.75;100363.69;5050360;28;20717;-62
2023/03/27 04:13:10;;;;;;;12.17;1.73;;;;;;;6.91;54.19;100367.56;5046761;28;20228;-64
2023/03/27 04:15:38;;;;;;;7.90;1.17;;;;;;;6.82;54.46;100378.84;5049747;28;20215;-65
2023/03/27 04:18:06;;;;;;;11.83;1.63;;;;;;;6.78;54.76;100387.97;5050288;28;20637;-63
2023/03/27 04:20:34;;;;;;;8.27;1.00;;;;;;;6.83;54.49;100392.88;5048075;28;20218;-65
2023/03/27 04:23:03;;;;;;;13.13;1.50;;;;;;;6.86;54.07;100384.72;5051366;28;21574;-64
2023/03/27 04:25:31;;;;;;;7.07;1.20;;;;;;;6.82;54.10;100407.84;5048708;28;20402;-64
2023/03/27 04:28:01;;;;;;;5.80;1.47;;;;;;;6.83;54.30;100408.69;5052098;28;20726;-63
2023/03/27 04:30:28;;;;;;;6.97;1.57;;;;;;;6.75;54.38;100414.59;5051512;28;20203;-63
2023/03/27 04:32:58;;;;;;;11.40;1.30;;;;;;;6.71;54.95;100421.88;5051848;28;20215;-64
2023/03/27 04:35:26;;;;;;;14.13;1.30;;;;;;;6.70;54.76;100428.13;5050774;28;20976;-64
2023/03/27 04:37:54;;;;;;;10.73;1.80;;;;;;;6.66;55.34;100428.50;5047157;28;20329;-65
2023/03/27 04:40:24;;;;;;;10.60;1.27;;;;;;;6.59;55.64;100436.06;5049177;28;20210;-64
2023/03/27 04:42:54;;;;;;;5.17;0.90;;;;;;;6.60;55.65;100431.63;5049755;28;20215;-64
2023/03/27 04:45:24;;;;;;;6.70;1.20;;;;;;;6.54;55.70;100440.84;5048399;28;20215;-65
2023/03/27 04:47:53;;;;;;;9.30;1.67;;;;;;;6.57;55.05;100442.41;5049485;28;20302;-65
2023/03/27 04:50:21;;;;;;;8.00;1.30;;;;;;;6.60;55.39;100436.88;5047399;28;20211;-63
2023/03/27 04:52:48;;;;;;;8.53;1.30;;;;;;;6.55;54.94;100441.69;5046247;28;20281;-64
2023/03/27 04:55:18;;;;;;;10.23;1.47;;;;;;;6.56;55.39;100456.56;5047347;28;21078;-64
2023/03/27 04:57:47;;;;;;;7.07;1.23;;;;;;;6.53;55.02;100459.41;5049466;28;20235;-63
2023/03/27 05:00:17;;;;;;;8.87;1.20;;;;;;;6.50;55.62;100472.84;5053660;28;20203;-62
2023/03/27 05:02:46;;;;;;;7.17;1.60;;;;;;;6.46;55.25;100477.53;5053292;28;20822;-64
2023/03/27 05:05:15;;;;;;;6.20;1.47;;;;;;;6.49;55.20;100487.81;5050226;28;20203;-66
2023/03/27 05:07:44;;;;;;;8.03;1.57;;;;;;;6.45;55.41;100485.53;5050833;28;20200;-65
2023/03/27 05:10:14;;;;;;;9.83;1.47;;;;;;;6.45;55.27;100493.44;5048911;28;20215;-62
2023/03/27 05:12:52;;;;;;;4.17;1.07;;;;;;;6.34;55.79;100492.47;5050999;28;20196;-63
2023/03/27 05:15:20;;;;;;;11.80;1.87;;;;;;;6.35;56.03;100503.84;5046938;28;20223;-64
2023/03/27 05:17:53;;;;;;;11.17;1.47;;;;;;;6.39;55.60;100503.50;5050101;28;20807;-65
2023/03/27 05:20:21;;;;;;;10.60;1.13;;;;;;;6.39;55.55;100524.59;5050077;28;20211;-64
2023/03/27 05:22:52;;;;;;;9.03;1.67;;;;;;;6.37;55.40;100523.84;5048816;28;20226;-63
2023/03/27 05:25:20;;;;;;;8.43;1.57;;;;;;;6.40;55.53;100531.53;5050957;28;20211;-63
2023/03/27 05:27:50;;;;;;;4.43;1.00;;;;;;;6.41;55.50;100543.75;5048925;28;20204;-64
2023/03/27 05:30:20;;;;;;;9.77;1.63;;;;;;;6.36;55.49;100550.31;5048393;28;20211;-64
2023/03/27 05:32:51;;;;;;;9.33;1.40;;;;;;;6.40;55.66;100557.03;5052141;28;20218;-60
2023/03/27 05:35:21;;;;;;;8.83;1.37;;;;;;;6.44;55.21;100558.44;5051215;28;20231;-60
2023/03/27 05:37:51;;;;;;;11.00;2.10;;;;;;;6.55;55.23;100563.72;5053001;28;20236;-60
2023/03/27 05:40:21;;;;;;;10.60;1.53;;;;;;;6.59;55.04;100565.19;5053609;28;20210;-61
2023/03/27 05:42:52;;;;;;;7.97;1.30;;;;;;;6.66;55.32;100568.16;5054202;28;20308;-61
2023/03/27 05:45:21;;;;;;;6.27;1.13;;;;;;;6.67;55.23;100570.69;5054324;28;20854;-59
2023/03/27 05:47:50;;;;;;;10.17;1.80;;;;;;;6.64;55.11;100578.81;5054658;28;20302;-60
2023/03/27 05:50:21;;;;;;;7.27;1.50;;;;;;;6.64;55.30;100580.63;5054222;28;20235;-59
2023/03/27 05:52:55;;;;;;;6.93;1.23;;;;;;;6.66;55.29;100583.97;5051270;28;20214;-59
2023/03/27 05:55:23;;;;;;;10.00;1.60;;;;;;;6.72;55.20;100586.13;5057233;28;20218;-61
2023/03/27 05:57:55;;;;;;;5.33;1.20;;;;;;;6.77;55.06;100597.16;5052842;28;20239;-60
2023/03/27 06:00:25;;;;;;;11.37;1.20;;;;;;;6.81;54.80;100606.47;5054963;28;20219;-59
2023/03/27 06:02:55;;;;;;;8.73;1.37;;;;;;;6.87;54.78;100602.50;5053316;28;20220;-60
2023/03/27 06:05:25;;;;;;;8.27;1.30;;;;;;;6.91;54.75;100607.44;5051592;28;20696;-61
2023/03/27 06:07:53;;;;;;;16.50;1.70;;;;;;;6.91;54.08;100617.97;5053549;28;20228;-60
2023/03/27 06:10:21;;;;;;;8.37;1.57;;;;;;;6.88;54.03;100626.13;5051104;28;20286;-61
2023/03/27 06:12:49;;;;;;;11.57;1.50;;;;;;;6.91;54.32;100628.53;5049387;28;20212;-60
2023/03/27 06:15:18;;;;;;;9.00;1.23;;;;;;;6.93;54.75;100644.22;5052510;28;20215;-60
2023/03/27 06:17:47;;;;;;;11.33;1.53;;;;;;;6.92;54.40;100648.66;5049854;28;20604;-61
2023/03/27 06:20:14;;;;;;;10.77;1.47;;;;;;;6.96;54.30;100655.34;5052855;28;20331;-61
2023/03/27 06:22:45;;;;;;;9.50;1.50;;;;;;;6.97;54.36;100662.31;5053409;28;20283;-61
2023/03/27 06:25:13;;;;;;;9.17;2.03;;;;;;;7.02;54.23;100660.16;5055012;28;20239;-60
2023/03/27 06:27:42;;;;;;;6.93;1.80;;;;;;;7.16;58.60;100678.38;5054369;28;20226;-62
2023/03/27 06:30:11;;;;;;;6.90;1.73;;;;;;;7.29;56.45;100672.13;5054052;28;20220;-60
2023/03/27 06:32:45;;;;;;;10.63;1.67;;;;;;;7.33;54.98;100684.09;5049566;28;20215;-61
2023/03/27 06:35:13;;;;;;;11.93;1.70;;;;;;;7.36;54.65;100686.50;5052584;28;20207;-60
2023/03/27 06:37:44;;;;;;;9.03;1.47;;;;;;;7.35;54.53;100693.56;5053075;28;20231;-59
2023/03/27 06:40:21;;;;;;;11.70;1.93;;;;;;;7.35;54.19;100701.50;5034380;28;20227;-61
2023/03/27 06:42:51;;;;;;;16.20;2.60;;;;;;;7.35;53.58;100698.84;5034254;28;20533;-59
2023/03/27 06:45:19;;;;;;;13.57;2.83;;;;;;;7.34;53.63;100712.16;5032926;28;20213;-60
2023/03/27 06:47:53;;;;;;;8.20;1.77;;;;;;;7.35;53.92;100712.03;5034033;28;20239;-61
2023/03/27 06:50:31;;;;;;;9.97;2.00;;;;;;;7.28;53.60;100705.59;5034089;28;20212;-60
2023/03/27 06:53:00;;;;;;;8.73;2.03;;;;;;;7.27;53.31;100710.97;5038266;28;20372;-60
2023/03/27 06:55:31;;;;;;;11.00;1.87;;;;;;;7.27;53.17;100724.16;5037832;28;20568;-59
2023/03/27 06:58:01;;;;;;;12.57;2.37;;;;;;;7.29;53.42;100724.88;5038616;28;20231;-60
2023/03/27 07:00:31;;;;;;;6.63;1.93;;;;;;;7.34;53.82;100739.38;5034512;28;20637;-61
2023/03/27 07:03:03;;;;;;;9.70;1.90;;;;;;;7.36;53.75;100736.63;5038293;28;20250;-60
2023/03/27 07:05:35;;;;;;;6.73;1.50;;;;;;;7.39;53.04;100741.63;5034183;28;20941;-60
2023/03/27 07:08:05;;;;;;;13.07;1.80;;;;;;;7.33;53.09;100750.03;5035674;28;20228;-60
2023/03/27 07:10:49;;;;;;;12.20;1.93;;;;;;;7.34;53.59;100765.75;5037025;28;20572;-60
2023/03/27 07:13:37;;;;;;;6.80;1.93;;;;;;;7.42;52.86;100766.00;5035165;28;20204;-60
2023/03/27 07:16:05;;;;;;;11.73;2.40;;;;;;;7.39;52.37;100778.56;5034564;28;20211;-61
2023/03/27 07:18:35;;;;;;;6.90;2.20;;;;;;;7.45;52.97;100784.25;5033419;28;20232;-59
2023/03/27 07:21:02;;;;;;;7.53;1.80;;;;;;;7.52;52.85;100789.88;5034243;28;20231;-59
2023/03/27 07:23:30;;;;;;;10.13;1.73;;;;;;;7.60;52.70;100787.47;5032113;28;20217;-57
2023/03/27 07:25:58;;;;;;;11.60;1.90;;;;;;;7.64;52.49;100799.47;5034842;28;20648;-59
2023/03/27 07:28:27;;;;;;;14.03;2.80;;;;;;;7.75;52.65;100810.00;5034488;28;20227;-60
2023/03/27 07:30:55;;;;;;;11.37;2.00;;;;;;;7.84;52.30;100806.63;5032899;28;20219;-59
2023/03/27 07:33:23;;;;;;;10.07;2.23;;;;;;;7.94;52.05;100818.13;5034601;28;20673;-60
2023/03/27 07:35:53;;;;;;;6.47;1.40;;;;;;;8.02;51.64;100819.31;5033110;28;20247;-60
2023/03/27 07:38:21;;;;;;;7.33;1.40;;;;;;;7.98;51.65;100826.66;5039214;28;20328;-59
2023/03/27 07:40:49;;;;;;;10.33;1.53;;;;;;;8.02;51.39;100827.22;5055071;28;20232;-61
2023/03/27 07:43:17;;;;;;;9.77;1.73;;;;;;;8.05;50.87;100824.34;5053562;28;20199;-61
2023/03/27 07:45:44;;;;;;;11.40;2.33;;;;;;;8.18;51.46;100827.69;5055671;28;20274;-62
2023/03/27 07:48:14;;;;;;;7.17;1.73;;;;;;;8.24;51.12;100830.69;5052543;28;20222;-61
2023/03/27 07:50:43;;;;;;;9.73;1.60;;;;;;;8.27;51.32;100837.50;5054384;28;20255;-61
2023/03/27 07:53:13;;;;;;;9.47;1.73;;;;;;;8.37;50.89;100838.47;5052878;28;20234;-61
2023/03/27 07:56:01;;;;;;;9.93;1.87;;;;;;;8.45;50.42;100838.69;5056795;28;20213;-60
2023/03/27 07:58:28;;;;;;;8.00;1.60;;;;;;;8.52;50.70;100844.31;5057786;28;20217;-60
2023/03/27 08:01:00;;;;;;;11.60;1.80;;;;;;;8.59;49.84;100851.63;5058204;28;20225;-60
2023/03/27 08:03:29;;;;;;;11.60;1.73;;;;;;;8.60;50.19;100853.31;5057373;28;20205;-61
2023/03/27 08:05:59;;;;;;;9.43;1.63;;;;;;;8.73;50.31;100852.28;5060473;28;20218;-61
2023/03/27 08:08:29;;;;;;;10.17;2.07;;;;;;;8.84;50.23;100855.72;5057632;28;20248;-62
2023/03/27 08:10:57;;;;;;;12.07;2.30;;;;;;;8.99;50.47;100850.94;5058181;28;20321;-60
2023/03/27 08:13:26;;;;;;;8.23;1.83;;;;;;;9.16;50.40;100860.94;5060509;28;20209;-61
2023/03/27 08:16:03;;;;;;;9.57;1.60;;;;;;;9.33;50.30;100860.34;5059130;28;20691;-61
2023/03/27 08:18:30;;;;;;;14.47;2.60;;;;;;;9.50;49.39;100860.75;5058345;28;20214;-60
2023/03/27 08:21:00;;;;;;;9.87;1.77;;;;;;;9.65;48.21;100867.34;5055923;28;20254;-59
2023/03/27 08:23:30;;;;;;;8.60;1.53;;;;;;;9.89;47.33;100875.81;5056790;28;20233;-61
2023/03/27 08:25:59;;;;;;;14.03;2.20;;;;;;;10.16;47.25;100876.03;5059309;28;20618;-61
2023/03/27 08:28:27;;;;;;;14.20;2.30;;;;;;;10.34;46.52;100880.72;5058842;28;20199;-59
2023/03/27 08:30:55;;;;;;;8.23;2.23;;;;;;;10.72;46.14;100880.78;5057152;28;20210;-61
2023/03/27 08:33:30;;;;;;;8.17;1.47;;;;;;;11.26;45.46;100880.16;5059819;28;20214;-62
2023/03/27 08:35:57;;;;;;;10.97;1.87;;;;;;;11.89;43.26;100877.75;5059025;28;20207;-60
2023/03/27 08:38:27;;;;;;;11.37;1.90;;;;;;;13.38;40.84;100883.41;5055883;28;20236;-60
2023/03/27 08:40:58;;;;;;;8.53;1.73;;;;;;;15.60;37.11;100881.81;5054953;28;20324;-59
2023/03/27 08:43:30;;;;;;;7.13;1.63;;;;;;;17.61;32.54;100880.72;5056221;28;21131;-60
2023/03/27 08:46:02;;;;;;;7.00;1.20;;;;;;;18.99;30.51;100878.94;5056908;28;20201;-59
2023/03/27 08:48:35;;;;;;;9.60;1.50;;;;;;;20.93;27.96;100886.81;5057622;28;20215;-60
2023/03/27 08:51:09;;;;;;;5.30;1.73;;;;;;;21.50;26.55;100893.47;5056827;28;20761;-60
2023/03/27 08:53:41;;;;;;;8.37;1.40;;;;;;;18.53;29.26;100896.41;5056858;28;20253;-60
2023/03/27 08:56:13;;;;;;;11.83;1.70;;;;;;;18.33;30.63;100891.63;5055695;28;20206;-58
2023/03/27 08:58:42;;;;;;;5.57;1.40;;;;;;;21.61;27.85;100885.59;5060538;28;20638;-59
2023/03/27 09:01:15;;;;;;;12.73;2.00;;;;;;;24.83;23.89;100883.22;5055506;28;20696;-59
2023/03/27 09:03:50;;;;;;;7.97;1.83;;;;;;;27.54;21.08;100882.94;5058037;28;20717;-60
2023/03/27 09:06:25;;;;;;;5.43;1.50;;;;;;;29.58;18.62;100883.25;5058660;28;20268;-59
2023/03/27 09:09:01;;;;;;;8.17;2.03;;;;;;;29.95;18.31;100889.53;5057855;28;20605;-60
2023/03/27 09:11:40;;;;;;;12.45;2.38;;;;;;;30.40;18.16;100877.09;5055274;28;20206;-59
2023/03/27 09:14:19;;;;;;;8.00;1.98;;;;;;;28.89;19.42;100885.97;5056166;28;20230;-61
2023/03/27 09:16:49;;;;;;;11.48;2.05;;;;;;;27.96;20.09;100891.44;5054290;28;20208;-60
2023/03/27 09:19:27;;;;;;;5.72;1.60;;;;;;;25.25;21.61;100898.44;5051939;28;20214;-61
2023/03/27 09:22:00;;;;;;;8.90;1.83;;;;;;;22.89;23.86;100900.91;5055277;28;20245;-60
2023/03/27 09:24:30;;;;;;;10.05;1.50;;;;;;;20.20;26.25;100901.91;5057769;28;20298;-61
2023/03/27 09:27:05;;;;;;;5.80;2.43;;;;;;;18.07;29.30;100903.88;5057972;28;20215;-61
2023/03/27 09:29:38;;;;;;;8.60;3.20;;;;;;;16.07;31.45;100905.09;5055359;28;20207;-61
2023/03/27 09:32:12;;;;;;;6.20;1.40;;;;;;;14.64;33.60;100911.00;5053704;28;20258;-61
2023/03/27 09:34:40;;;;;;;6.87;1.80;;;;;;;13.76;34.77;100909.63;5056564;28;20218;-60
2023/03/27 09:37:13;;;;;;;6.23;1.60;;;;;;;13.36;35.76;100904.91;5056228;28;20294;-59
2023/03/27 09:39:46;;;;;;;9.67;1.97;;;;;;;13.27;36.18;100907.66;5056523;28;20243;-59
2023/03/27 09:42:22;;;;;;;8.97;1.63;;;;;;;15.60;33.64;100913.06;5054159;28;20294;-60
2023/03/27 09:44:55;;;;;;;8.33;1.43;;;;;;;19.71;29.07;100902.03;5057177;28;20294;-59
2023/03/27 09:47:31;;;;;;;7.53;1.87;;;;;;;21.18;26.83;100904.09;5054805;28;20211;-61
2023/03/27 09:50:24;;;;;;;6.87;1.40;;;;;;;19.96;27.15;100910.50;5056825;28;20290;-61
2023/03/27 09:53:07;;;;;;;7.27;1.13;;;;;;;17.60;28.59;100911.22;5054702;28;20212;-59
2023/03/27 09:55:51;;;;;;;6.80;1.90;;;;;;;17.97;29.35;100912.19;5055071;28;20219;-59
2023/03/27 09:58:30;;;;;;;6.27;1.40;;;;;;;23.80;23.52;100903.06;5052825;28;20905;-59
2023/03/27 10:01:14;;;;;;;4.40;1.07;;;;;;;28.74;19.08;100881.19;5056432;28;20409;-59
2023/03/27 10:03:48;;;;;;;9.77;1.75;;;;;;;30.93;17.24;100884.88;5055195;28;20673;-59
2023/03/27 10:06:25;;;;;;;5.43;1.20;;;;;;;31.25;16.67;100886.53;5056884;28;20684;-60
2023/03/27 10:08:54;;;;;;;6.72;1.50;;;;;;;32.46;15.79;100880.72;5048451;28;21473;-61
2023/03/27 10:11:24;;;;;;;5.25;1.48;;;;;;;33.56;15.17;100884.81;5053082;28;21014;-61
2023/03/27 10:13:58;;;;;;;5.90;1.27;;;;;;;32.44;15.71;100877.44;5053577;28;20199;-59
2023/03/27 10:16:27;;;;;;;4.85;1.30;;;;;;;31.18;16.94;100883.28;5053851;28;22231;-61
2023/03/27 10:18:58;;;;;;;5.55;1.20;;;;;;;32.15;15.37;100876.47;5053531;28;20254;-61
2023/03/27 10:21:29;;;;;;;5.03;1.60;;;;;;;33.79;14.37;100878.53;5056548;28;20238;-62
2023/03/27 10:24:03;;;;;;;4.72;1.55;;;;;;;34.43;13.90;100873.63;5053548;28;20320;-61
2023/03/27 10:26:33;;;;;;;5.40;1.60;;;;;;;32.91;14.70;100888.94;5055270;28;20242;-60
2023/03/27 10:29:20;;;;;;;5.72;1.38;;;;;;;30.27;15.95;100900.31;5053792;28;20912;-60
2023/03/27 10:31:52;;;;;;;3.28;1.05;;;;;;;28.79;17.81;100894.88;5055135;28;20333;-60
2023/03/27 10:34:54;;;;;;;5.32;1.13;;;;;;;28.62;17.62;100900.41;5052332;28;20274;-61
2023/03/27 10:37:28;;;;;;;3.45;1.25;;;;;;;29.39;17.46;100908.28;5039647;28;20211;-61
2023/03/27 10:39:59;;;;;;;6.00;1.58;;;;;;;27.54;18.69;100909.34;5054876;28;20758;-61
2023/03/27 10:42:31;;;;;;;6.75;1.52;;;;;;;25.57;20.11;100895.41;5052529;28;20204;-61
2023/03/27 10:45:00;;;;;;;6.00;1.50;;;;;;;22.93;22.88;100922.94;5053127;28;20204;-61
2023/03/27 10:47:32;;;;;;;11.68;2.10;;;;;;;20.57;25.78;100924.88;5054330;28;20212;-61
2023/03/27 10:50:06;;;;;;;5.45;1.40;;;;;;;18.60;28.81;100948.34;5055594;28;20377;-60
2023/03/27 10:52:43;;;;;;;4.20;1.00;;;;;;;16.85;32.08;100943.34;5052440;28;20238;-60
2023/03/27 10:55:28;;;;;;;6.23;1.40;;;;;;;16.40;34.18;100962.81;5053105;28;20526;-60
2023/03/27 10:58:01;;;;;;;5.80;1.40;;;;;;;16.02;35.85;100956.41;5055415;28;20242;-61
2023/03/27 11:00:35;;;;;;;8.50;1.37;;;;;;;16.33;34.89;100952.97;5055386;28;20219;-60
2023/03/27 11:03:11;;;;;;;3.80;1.03;;;;;;;16.96;34.56;100955.50;5055694;28;20200;-62
2023/03/27 11:05:43;;;;;;;4.07;1.00;;;;;;;19.38;32.07;100955.56;5054047;28;20246;-60
2023/03/27 11:08:16;;;;;;;3.57;0.87;;;;;;;20.33;30.07;100966.59;5053875;28;20224;-60
2023/03/27 11:10:45;;;;;;;3.50;0.97;;;;;;;21.02;29.06;100961.09;5054988;28;20208;-61
2023/03/27 11:13:17;;;;;;;4.93;1.20;;;;;;;23.03;26.64;100958.44;5054419;28;20660;-60
2023/03/27 11:15:52;;;;;;;8.57;1.57;;;;;;;26.45;23.21;100955.00;5053468;28;20207;-61
2023/03/27 11:18:25;;;;;;;5.97;2.55;;;;;;;28.13;21.15;100953.25;5052219;28;20211;-60
2023/03/27 11:20:58;;;;;;;7.28;1.00;;;;;;;29.50;19.69;100952.88;5054473;28;20281;-62
2023/03/27 11:23:33;;;;;;;6.13;1.38;;;;;;;30.64;18.39;100946.69;5054743;28;20717;-59
2023/03/27 11:26:04;;;;;;;1.65;0.93;;;;;;;31.25;18.03;100938.59;5053879;28;20846;-60
2023/03/27 11:28:41;;;;;;;4.03;1.42;;;;;;;32.74;17.00;100938.78;5055367;28;20236;-62
2023/03/27 11:31:18;;;;;;;4.10;1.60;;;;;;;32.07;16.96;100940.16;5057967;28;21032;-61
2023/03/27 11:34:04;;;;;;;3.88;1.40;;;;;;;29.59;18.76;100953.22;5058414;28;20207;-63
2023/03/27 11:36:43;;;;;;;4.63;1.27;;;;;;;27.06;20.82;100962.47;5055657;28;20213;-63
2023/03/27 11:39:25;;;;;;;3.53;1.30;;;;;;;26.58;21.61;100965.56;5057169;28;20731;-60
2023/03/27 11:42:00;;;;;;;5.20;1.52;;;;;;;26.72;21.11;100963.41;5056635;28;20293;-63
2023/03/27 11:44:29;;;;;;;5.13;1.67;;;;;;;26.41;21.80;100964.69;5056618;28;20211;-62
2023/03/27 11:47:30;;;;;;;3.83;1.65;;;;;;;25.51;22.62;100956.88;5058418;28;20683;-65
2023/03/27 11:50:23;;;;;;;4.57;1.60;;;;;;;23.00;24.42;100966.97;5055764;28;21165;-61
2023/03/27 11:53:04;;;;;;;6.15;1.80;;;;;;;22.91;25.73;100965.59;5055233;28;20199;-63